createdAt,value
2022-08-22T00:01:21.342Z,2.88
2022-08-22T00:03:07.178Z,2.85
2022-08-22T00:04:06.769Z,2.65
2022-08-22T00:06:55.348Z,2.72
2022-08-22T00:09:29.404Z,3.00
2022-08-22T00:12:12.223Z,2.70
2022-08-22T00:14:46.838Z,2.50
2022-08-22T00:17:38.547Z,2.88
2022-08-22T00:20:11.027Z,2.92
2022-08-22T00:22:55.405Z,2.80
2022-08-22T00:25:47.625Z,2.55
2022-08-22T00:28:30.001Z,3.03
2022-08-22T00:31:18.064Z,3.00
2022-08-22T00:34:17.447Z,3.17
2022-08-22T00:36:52.733Z,3.05
2022-08-22T00:39:27.111Z,2.65
2022-08-22T00:41:56.762Z,2.80
2022-08-22T00:45:12.872Z,3.45
2022-08-22T00:47:59.961Z,2.75
2022-08-22T00:50:51.526Z,2.65
2022-08-22T00:53:36.571Z,2.65
2022-08-22T00:56:26.518Z,2.75
2022-08-22T00:59:23.516Z,3.08
2022-08-22T01:02:31.835Z,3.30
2022-08-22T01:05:07.689Z,3.35
2022-08-22T01:07:50.969Z,3.00
2022-08-22T01:10:48.395Z,3.17
2022-08-22T01:13:28.782Z,2.65
2022-08-22T01:16:23.373Z,3.22
2022-08-22T01:19:38.046Z,3.58
2022-08-22T01:22:26.428Z,2.97
2022-08-22T01:25:18.427Z,3.17
2022-08-22T01:28:31.632Z,3.15
2022-08-22T01:31:48.829Z,3.72
2022-08-22T01:34:34.031Z,3.13
2022-08-22T01:37:30.787Z,3.08
2022-08-22T01:40:22.112Z,2.83
2022-08-22T01:43:05.579Z,3.08
2022-08-22T01:45:53.408Z,3.05
2022-08-22T01:48:48.111Z,2.33
2022-08-22T01:51:24.335Z,3.72
2022-08-22T01:54:07.670Z,3.20
2022-08-22T01:56:41.562Z,3.30
2022-08-22T01:59:14.934Z,3.05
2022-08-22T02:01:52.514Z,3.08
2022-08-22T02:04:33.411Z,3.15
2022-08-22T02:07:06.185Z,3.42
2022-08-22T02:09:36.304Z,3.58
2022-08-22T02:12:26.188Z,3.15
2022-08-22T02:14:59.192Z,3.08
2022-08-22T02:17:35.642Z,3.37
2022-08-22T02:20:20.441Z,3.22
2022-08-22T02:23:18.368Z,3.33
2022-08-22T02:26:04.126Z,3.53
2022-08-22T02:28:35.776Z,2.67
2022-08-22T02:31:21.776Z,3.60
2022-08-22T02:34:01.216Z,3.35
2022-08-22T02:36:43.665Z,3.22
2022-08-22T02:39:40.492Z,2.60
2022-08-22T02:42:33.357Z,3.08
2022-08-22T02:45:17.818Z,3.20
2022-08-22T02:48:26.361Z,2.97
2022-08-22T02:51:17.079Z,3.50
2022-08-22T02:54:09.058Z,3.10
2022-08-22T02:56:59.942Z,3.10
2022-08-22T02:59:32.930Z,3.13
2022-08-22T03:02:34.792Z,3.20
2022-08-22T03:05:33.976Z,3.05
2022-08-22T03:08:30.783Z,3.45
2022-08-22T03:10:57.793Z,2.80
2022-08-22T03:13:48.436Z,3.08
2022-08-22T03:16:40.407Z,3.40
2022-08-22T03:19:20.211Z,3.15
2022-08-22T03:22:26.683Z,3.33
2022-08-22T03:24:59.478Z,3.10
2022-08-22T03:27:34.566Z,3.35
2022-08-22T03:30:07.819Z,4.15
2022-08-22T03:32:54.509Z,3.92
2022-08-22T03:35:53.730Z,4.20
2022-08-22T03:38:22.994Z,4.82
2022-08-22T03:40:52.966Z,4.65
2022-08-22T03:43:43.919Z,5.30
2022-08-22T03:46:31.786Z,5.45
2022-08-22T03:49:32.683Z,5.53
2022-08-22T03:52:12.646Z,4.97
2022-08-22T03:55:19.186Z,5.63
2022-08-22T03:58:27.589Z,6.43
2022-08-22T04:01:20.729Z,4.95
2022-08-22T04:04:22.767Z,5.82
2022-08-22T04:07:28.320Z,6.55
2022-08-22T04:10:33.599Z,5.82
2022-08-22T04:13:39.642Z,5.70
2022-08-22T04:16:24.578Z,5.38
2022-08-22T04:19:24.043Z,6.63
2022-08-22T04:22:02.492Z,6.53
2022-08-22T04:24:35.395Z,5.70
2022-08-22T04:27:07.603Z,5.73
2022-08-22T04:29:41.835Z,5.38
2022-08-22T04:32:30.289Z,5.38
2022-08-22T04:35:12.067Z,5.65
2022-08-22T04:37:44.379Z,5.72
2022-08-22T04:40:27.640Z,5.57
2022-08-22T04:43:01.741Z,5.13
2022-08-22T04:45:56.768Z,5.38
2022-08-22T04:48:32.086Z,4.38
2022-08-22T04:51:15.610Z,5.30
2022-08-22T04:53:56.369Z,4.50
2022-08-22T04:56:46.274Z,4.88
2022-08-22T04:59:17.805Z,4.10
2022-08-22T05:01:53.744Z,5.10
2022-08-22T05:04:35.674Z,4.32
2022-08-22T05:07:08.955Z,4.60
2022-08-22T05:09:39.410Z,4.93
2022-08-22T05:12:12.090Z,4.15
2022-08-22T05:14:51.495Z,4.32
2022-08-22T05:17:25.502Z,4.78
2022-08-22T05:19:55.993Z,4.22
2022-08-22T05:22:30.872Z,4.20
2022-08-22T05:25:02.597Z,4.60
2022-08-22T05:27:35.824Z,4.50
2022-08-22T05:30:13.132Z,4.88
2022-08-22T05:33:09.098Z,5.07
2022-08-22T05:35:49.567Z,4.18
2022-08-22T05:38:21.163Z,3.63
2022-08-22T05:40:59.730Z,4.07
2022-08-22T05:43:27.348Z,4.45
2022-08-22T05:45:58.102Z,3.80
2022-08-22T05:48:43.751Z,4.63
2022-08-22T05:51:26.311Z,4.88
2022-08-22T05:54:09.091Z,3.90
2022-08-22T05:56:46.137Z,4.75
2022-08-22T05:59:32.871Z,3.92
2022-08-22T06:02:05.248Z,5.22
2022-08-22T06:04:55.870Z,4.60
2022-08-22T06:07:27.169Z,5.00
2022-08-22T06:10:15.527Z,4.20
2022-08-22T06:12:48.246Z,4.15
2022-08-22T06:15:32.740Z,4.30
2022-08-22T06:18:12.503Z,3.97
2022-08-22T06:20:56.125Z,4.28
2022-08-22T06:23:48.522Z,4.95
2022-08-22T06:26:20.478Z,4.45
2022-08-22T06:28:54.654Z,4.85
2022-08-22T06:31:47.234Z,4.88
2022-08-22T06:34:18.038Z,5.05
2022-08-22T06:36:49.190Z,5.25
2022-08-22T06:39:22.848Z,4.47
2022-08-22T06:41:53.003Z,4.20
2022-08-22T06:44:37.710Z,4.40
2022-08-22T06:47:08.400Z,4.82
2022-08-22T06:49:37.518Z,4.38
2022-08-22T06:52:11.617Z,3.90
2022-08-22T06:54:45.591Z,3.60
2022-08-22T06:57:32.782Z,5.05
2022-08-22T07:00:02.387Z,4.43
2022-08-22T07:02:38.300Z,5.30
2022-08-22T07:05:09.883Z,3.83
2022-08-22T07:07:37.862Z,4.00
2022-08-22T07:10:05.420Z,4.47
2022-08-22T07:12:37.812Z,4.50
2022-08-22T07:15:35.086Z,4.43
2022-08-22T07:18:08.727Z,4.40
2022-08-22T07:20:42.049Z,4.75
2022-08-22T07:23:54.621Z,4.90
2022-08-22T07:26:33.733Z,4.60
2022-08-22T07:29:11.308Z,5.18
2022-08-22T07:31:53.511Z,4.25
2022-08-22T07:34:55.203Z,4.43
2022-08-22T07:37:36.591Z,4.00
2022-08-22T07:40:28.306Z,3.92
2022-08-22T07:43:21.303Z,4.40
2022-08-22T07:46:29.760Z,3.90
2022-08-22T07:49:10.211Z,4.45
2022-08-22T07:51:45.138Z,4.25
2022-08-22T07:54:16.596Z,4.90
2022-08-22T07:56:52.863Z,4.20
2022-08-22T07:59:22.433Z,4.72
2022-08-22T08:01:53.887Z,3.30
2022-08-22T08:04:40.225Z,3.75
2022-08-22T08:07:11.081Z,3.55
2022-08-22T08:09:43.284Z,3.40
2022-08-22T08:12:11.865Z,3.10
2022-08-22T08:14:42.584Z,2.95
2022-08-22T08:17:22.011Z,3.33
2022-08-22T08:19:50.829Z,3.47
2022-08-22T08:22:23.674Z,3.10
2022-08-22T08:24:53.970Z,3.30
2022-08-22T08:27:43.387Z,3.22
2022-08-22T08:30:19.218Z,3.10
2022-08-22T08:32:57.550Z,3.05
2022-08-22T08:36:02.455Z,3.53
2022-08-22T08:38:37.707Z,3.67
2022-08-22T08:41:42.366Z,3.78
2022-08-22T08:44:27.172Z,3.45
2022-08-22T08:47:27.820Z,3.42
2022-08-22T08:50:07.078Z,3.58
2022-08-22T08:53:01.273Z,3.10
2022-08-22T08:55:56.379Z,3.70
2022-08-22T08:58:32.914Z,2.88
2022-08-22T09:01:14.082Z,3.17
2022-08-22T09:04:19.644Z,3.63
2022-08-22T09:07:11.854Z,3.80
2022-08-22T09:10:11.133Z,3.45
2022-08-22T09:16:19.364Z,3.20
2022-08-22T09:19:14.262Z,3.15
2022-08-22T09:22:14.492Z,3.28
2022-08-22T09:25:06.553Z,2.92
2022-08-22T09:28:01.492Z,3.10
2022-08-22T09:30:58.020Z,3.15
2022-08-22T09:33:56.780Z,2.75
2022-08-22T09:36:42.091Z,2.95
2022-08-22T09:39:22.184Z,3.00
2022-08-22T09:41:59.948Z,3.10
2022-08-22T09:44:43.794Z,3.38
2022-08-22T09:47:43.771Z,2.72
2022-08-22T09:50:29.521Z,3.03
2022-08-22T09:53:31.076Z,2.55
2022-08-22T09:56:21.210Z,3.10
2022-08-22T09:59:20.982Z,3.42
2022-08-22T10:01:59.466Z,3.28
2022-08-22T10:04:46.678Z,2.80
2022-08-22T10:07:35.145Z,3.08
2022-08-22T10:10:23.530Z,2.80
2022-08-22T10:13:14.380Z,3.28
2022-08-22T10:15:56.436Z,2.97
2022-08-22T10:18:52.684Z,3.50
2022-08-22T10:21:32.910Z,3.50
2022-08-22T10:24:26.574Z,2.95
2022-08-22T10:26:58.131Z,3.35
2022-08-22T10:30:08.361Z,3.42
2022-08-22T10:32:42.826Z,3.22
2022-08-22T10:35:33.812Z,3.60
2022-08-22T10:38:12.434Z,3.08
2022-08-22T10:41:00.091Z,3.40
2022-08-22T10:43:49.860Z,2.78
2022-08-22T10:47:00.792Z,3.60
2022-08-22T10:49:51.124Z,3.00
2022-08-22T10:52:32.984Z,3.67
2022-08-22T10:55:13.378Z,2.78
2022-08-22T10:58:05.079Z,2.72
2022-08-22T11:00:50.717Z,2.47
2022-08-22T11:03:47.877Z,3.10
2022-08-22T11:06:23.701Z,2.63
2022-08-22T11:09:09.910Z,2.40
2022-08-22T11:11:56.098Z,2.70
2022-08-22T11:14:47.446Z,2.10
2022-08-22T11:17:28.250Z,2.53
2022-08-22T11:20:31.936Z,2.35
2022-08-22T11:23:18.248Z,2.30
2022-08-22T11:25:57.417Z,2.50
2022-08-22T11:28:53.455Z,2.30
2022-08-22T11:32:05.719Z,2.05
2022-08-22T11:37:43.993Z,2.30
2022-08-22T11:40:36.286Z,2.17
2022-08-22T11:43:11.962Z,2.65
2022-08-22T11:45:49.557Z,2.08
2022-08-22T11:48:17.735Z,2.10
2022-08-22T11:50:51.488Z,2.35
2022-08-22T11:53:36.966Z,1.90
2022-08-22T11:56:43.254Z,2.03
2022-08-22T11:59:55.378Z,2.00
2022-08-22T12:02:41.513Z,2.45
2022-08-22T12:05:26.466Z,2.42
2022-08-22T12:08:22.539Z,2.20
2022-08-22T12:10:57.926Z,2.08
2022-08-22T12:13:52.266Z,2.20
2022-08-22T12:16:52.010Z,2.30
2022-08-22T12:20:05.642Z,2.10
2022-08-22T12:22:51.331Z,2.13
2022-08-22T12:25:44.779Z,2.03
2022-08-22T12:28:16.807Z,2.40
2022-08-22T12:31:09.096Z,2.00
2022-08-22T12:33:55.786Z,2.42
2022-08-22T12:36:36.311Z,2.40
2022-08-22T12:39:27.477Z,2.00
2022-08-22T12:42:16.339Z,2.40
2022-08-22T12:44:43.520Z,2.10
2022-08-22T12:47:36.218Z,2.40
2022-08-22T12:50:40.243Z,2.20
2022-08-22T12:53:07.368Z,2.53
2022-08-22T12:55:49.441Z,2.47
2022-08-22T12:58:21.955Z,2.10
2022-08-22T13:00:50.281Z,2.33
2022-08-22T13:03:35.564Z,2.55
2022-08-22T13:08:39.214Z,2.25
2022-08-22T13:11:22.762Z,2.53
2022-08-22T13:14:00.638Z,2.42
2022-08-22T13:16:39.072Z,2.00
2022-08-22T13:19:13.664Z,1.70
2022-08-22T13:21:48.623Z,1.70
2022-08-22T13:24:52.718Z,2.10
2022-08-22T13:27:31.654Z,2.00
2022-08-22T13:30:03.970Z,1.80
2022-08-22T13:32:33.883Z,1.80
2022-08-22T13:35:02.555Z,1.83
2022-08-22T13:37:38.163Z,1.92
2022-08-22T13:40:10.198Z,1.77
2022-08-22T13:42:48.857Z,1.85
2022-08-22T13:45:25.966Z,2.10
2022-08-22T13:48:03.665Z,2.22
2022-08-22T13:50:37.113Z,2.10
2022-08-22T13:53:40.959Z,2.10
2022-08-22T13:56:17.623Z,2.30
2022-08-22T13:58:48.243Z,2.00
2022-08-22T14:02:03.420Z,2.13
2022-08-22T14:04:36.696Z,2.47
2022-08-22T14:07:06.377Z,1.92
2022-08-22T14:09:39.372Z,2.40
2022-08-22T14:12:17.231Z,2.10
2022-08-22T14:14:54.490Z,2.55
2022-08-22T14:17:30.200Z,2.25
2022-08-22T14:20:11.047Z,2.42
2022-08-22T14:22:42.663Z,2.60
2022-08-22T14:25:21.284Z,1.95
2022-08-22T14:27:56.101Z,2.10
2022-08-22T14:30:35.480Z,1.67
2022-08-22T14:33:02.424Z,2.22
2022-08-22T14:35:38.089Z,1.90
2022-08-22T14:38:20.179Z,2.08
2022-08-22T14:40:52.187Z,1.98
2022-08-22T14:46:01.948Z,2.15
2022-08-22T14:48:43.509Z,1.85
2022-08-22T14:51:25.223Z,1.75
2022-08-22T14:53:52.719Z,2.22
2022-08-22T14:56:24.660Z,2.40
2022-08-22T14:58:59.956Z,1.98
2022-08-22T15:01:33.069Z,2.10
2022-08-22T15:04:07.890Z,2.03
2022-08-22T15:06:37.606Z,2.03
2022-08-22T15:09:22.977Z,1.83
2022-08-22T15:11:50.194Z,1.42
2022-08-22T15:14:27.870Z,1.80
2022-08-22T15:17:02.514Z,1.63
2022-08-22T15:19:35.713Z,1.52
2022-08-22T15:22:28.742Z,2.10
2022-08-22T15:25:08.523Z,1.77
2022-08-22T15:27:45.684Z,2.10
2022-08-22T15:30:21.051Z,1.30
2022-08-22T15:32:49.135Z,1.60
2022-08-22T15:35:31.739Z,1.60
2022-08-22T15:38:05.762Z,1.90
2022-08-22T15:40:45.683Z,1.67
2022-08-22T15:43:25.506Z,1.50
2022-08-22T15:46:28.283Z,1.92
2022-08-22T15:49:06.458Z,1.95
2022-08-22T15:51:37.671Z,1.90
2022-08-22T15:54:16.432Z,1.58
2022-08-22T15:57:10.489Z,1.52
2022-08-22T16:00:02.089Z,1.63
2022-08-22T16:02:35.313Z,1.77
2022-08-22T16:05:11.346Z,1.52
2022-08-22T16:07:41.115Z,1.83
2022-08-22T16:10:24.859Z,1.70
2022-08-22T16:13:10.658Z,1.45
2022-08-22T16:15:50.304Z,2.00
2022-08-22T16:18:33.758Z,2.03
2022-08-22T16:21:23.745Z,1.83
2022-08-22T16:23:56.796Z,1.50
2022-08-22T16:26:30.957Z,1.38
2022-08-22T16:29:03.965Z,1.40
2022-08-22T16:31:48.758Z,1.65
2022-08-22T16:34:18.561Z,1.73
2022-08-22T16:37:03.646Z,1.75
2022-08-22T16:40:04.290Z,1.55
2022-08-22T16:42:41.770Z,1.70
2022-08-22T16:45:33.539Z,1.58
2022-08-22T16:48:33.954Z,1.25
2022-08-22T16:51:08.612Z,1.50
2022-08-22T16:53:35.482Z,1.50
2022-08-22T16:56:05.489Z,1.45
2022-08-22T16:59:19.662Z,1.38
2022-08-22T17:02:27.960Z,1.67
2022-08-22T17:05:45.320Z,1.50
2022-08-22T17:08:24.920Z,1.23
2022-08-22T17:11:06.249Z,1.70
2022-08-22T17:14:17.659Z,1.50
2022-08-22T17:17:13.846Z,1.58
2022-08-22T17:19:55.752Z,1.75
2022-08-22T17:22:40.800Z,1.83
2022-08-22T17:25:13.366Z,1.45
2022-08-22T17:27:43.843Z,1.43
2022-08-22T17:30:15.579Z,1.73
2022-08-22T17:32:59.834Z,1.40
2022-08-22T17:35:45.717Z,1.27
2022-08-22T17:38:45.388Z,1.50
2022-08-22T17:41:21.992Z,1.70
2022-08-22T17:43:59.299Z,1.40
2022-08-22T17:46:43.795Z,1.60
2022-08-22T17:49:29.066Z,1.77
2022-08-22T17:52:08.995Z,1.40
2022-08-22T17:54:42.051Z,1.60
2022-08-22T17:57:14.514Z,1.67
2022-08-22T17:59:47.686Z,1.60
2022-08-22T18:02:20.578Z,1.50
2022-08-22T18:05:14.199Z,1.63
2022-08-22T18:08:05.042Z,1.48
2022-08-22T18:10:50.236Z,1.55
2022-08-22T18:13:55.326Z,1.70
2022-08-22T18:16:33.780Z,1.42
2022-08-22T18:19:06.452Z,1.55
2022-08-22T18:21:48.778Z,1.60
2022-08-22T18:24:33.344Z,1.58
2022-08-22T18:27:34.951Z,1.80
2022-08-22T18:30:06.036Z,1.50
2022-08-22T18:32:51.801Z,1.75
2022-08-22T18:35:21.949Z,1.58
2022-08-22T18:38:02.412Z,1.50
2022-08-22T18:40:58.952Z,1.40
2022-08-22T18:43:34.799Z,2.55
2022-08-22T18:46:23.030Z,1.63
2022-08-22T18:49:14.036Z,1.60
2022-08-22T18:51:38.817Z,1.52
2022-08-22T18:54:07.144Z,1.58
2022-08-22T18:56:54.035Z,1.50
2022-08-22T18:59:49.158Z,1.90
2022-08-22T19:02:55.920Z,1.52
2022-08-22T19:05:50.925Z,1.48
2022-08-22T19:08:53.053Z,1.70
2022-08-22T19:11:37.333Z,1.17
2022-08-22T19:17:23.522Z,1.45
2022-08-22T19:20:19.324Z,1.38
2022-08-22T19:22:50.922Z,1.27
2022-08-22T19:25:20.411Z,1.88
2022-08-22T19:28:08.838Z,1.42
2022-08-22T19:30:51.743Z,1.50
2022-08-22T19:33:34.145Z,1.55
2022-08-22T19:36:12.594Z,1.80
2022-08-22T19:38:54.527Z,1.60
2022-08-22T19:41:45.128Z,2.50
2022-08-22T19:44:33.438Z,1.30
2022-08-22T19:47:17.874Z,1.77
2022-08-22T19:49:50.858Z,1.70
2022-08-22T19:52:26.920Z,1.83
2022-08-22T19:55:12.374Z,1.73
2022-08-22T19:58:01.335Z,1.70
2022-08-22T20:00:50.294Z,1.92
2022-08-22T20:03:44.873Z,1.92
2022-08-22T20:06:46.005Z,2.03
2022-08-22T20:09:40.872Z,2.03
2022-08-22T20:12:09.196Z,1.75
2022-08-22T20:14:41.025Z,1.98
2022-08-22T20:17:25.680Z,1.80
2022-08-22T20:23:00.773Z,2.03
2022-08-22T20:25:44.389Z,1.90
2022-08-22T20:28:47.627Z,1.88
2022-08-22T20:31:25.704Z,1.90
2022-08-22T20:34:00.762Z,1.70
2022-08-22T20:36:29.323Z,1.50
2022-08-22T20:39:09.396Z,1.60
2022-08-22T20:41:41.995Z,1.50
2022-08-22T20:44:18.538Z,1.50
2022-08-22T20:47:00.996Z,1.55
2022-08-22T20:49:34.655Z,1.58
2022-08-22T20:57:17.030Z,1.48
2022-08-22T20:59:57.769Z,1.80
2022-08-22T21:02:36.031Z,1.67
2022-08-22T21:05:25.751Z,1.70
2022-08-22T21:08:03.896Z,1.50
2022-08-22T21:10:51.305Z,1.67
2022-08-22T21:13:36.562Z,1.52
2022-08-22T21:16:17.297Z,1.40
2022-08-22T21:18:52.714Z,1.17
2022-08-22T21:21:24.943Z,1.20
2022-08-22T21:23:55.515Z,1.10
2022-08-22T21:26:29.222Z,1.30
2022-08-22T21:29:04.667Z,1.33
2022-08-22T21:32:04.217Z,1.20
2022-08-22T21:34:47.008Z,1.40
2022-08-22T21:37:39.736Z,1.65
2022-08-22T21:40:17.858Z,1.30
2022-08-22T21:43:10.170Z,1.38
2022-08-22T21:45:40.064Z,1.30
2022-08-22T21:48:36.904Z,1.30
2022-08-22T21:51:38.810Z,1.50
2022-08-22T21:54:31.866Z,1.52
2022-08-22T21:57:09.534Z,1.08
2022-08-22T21:59:52.189Z,1.30
2022-08-22T22:02:41.732Z,1.30
2022-08-22T22:05:15.950Z,1.52
2022-08-22T22:07:46.754Z,1.75
2022-08-22T22:10:16.700Z,1.70
2022-08-22T22:12:46.509Z,1.20
2022-08-22T22:15:19.211Z,1.35
2022-08-22T22:17:46.326Z,1.38
2022-08-22T22:20:15.732Z,1.58
2022-08-22T22:22:46.431Z,1.33
2022-08-22T22:25:40.947Z,1.35
2022-08-22T22:28:23.720Z,1.48
2022-08-22T22:30:53.217Z,1.67
2022-08-22T22:33:23.952Z,1.55
2022-08-22T22:35:53.303Z,1.52
2022-08-22T22:38:24.133Z,1.42
2022-08-22T22:40:52.414Z,1.38
2022-08-22T22:43:19.849Z,1.10
2022-08-22T22:45:46.865Z,1.77
2022-08-22T22:48:24.295Z,2.28
2022-08-22T22:50:52.784Z,1.00
2022-08-22T22:53:21.527Z,1.23
2022-08-22T22:56:00.947Z,1.45
2022-08-22T22:58:29.172Z,1.70
2022-08-22T23:00:57.344Z,1.67
2022-08-22T23:03:26.727Z,1.77
2022-08-22T23:05:53.782Z,1.73
2022-08-22T23:08:20.754Z,1.20
2022-08-22T23:10:47.765Z,1.40
2022-08-22T23:13:14.898Z,1.60
2022-08-22T23:15:42.047Z,1.30
2022-08-22T23:18:08.966Z,1.52
2022-08-22T23:20:35.933Z,1.40
2022-08-22T23:23:02.910Z,1.40
2022-08-22T23:25:29.931Z,1.40
2022-08-22T23:27:57.429Z,1.50
2022-08-22T23:30:24.455Z,1.42
2022-08-22T23:32:51.354Z,1.58
2022-08-22T23:35:18.479Z,1.90
2022-08-22T23:37:45.391Z,1.77
2022-08-22T23:40:12.915Z,1.90
2022-08-22T23:42:40.009Z,1.20
2022-08-22T23:45:07.307Z,1.48
2022-08-22T23:47:34.198Z,1.20
2022-08-22T23:50:05.728Z,1.70
2022-08-22T23:52:33.638Z,1.60
2022-08-22T23:55:00.642Z,1.50
2022-08-22T23:57:29.422Z,1.70
2022-08-22T23:59:57.997Z,2.10
